Ryegate, Vermont
Current Conditions -  °F | °C
As of 1:51 PM on Thursday 23 Oct 2014 (Local Time) from KMPV Reporting Station
Heavy Rain Heavy Rain  
Wind Chill: 38°   Ceiling: 700
Heat Index: 43°   Visibility: 2mi
Dew Point: 42°   Wind: 9mph
Humidity: 97%   Direction: 350°N
Pressure: 29.91"   Gusts: NA
Location:  44.1959°N, 72.0788°W
Report Text: KMPV 231751Z AUTO 35008KT 2SM +RA BR OVC007 06/06 A2991 RMK AO2 SLP138 P0026 60036 T00610056 10067 20061 58006
Loading
Personal Weather Stations






























Interactive Weather Map
Tropical Storm Tracking
New forecast layout! Learn more

10-Day Weather Forecast

Advertisements
Track Severe Weather on mobile